Terminal Aerodrome Forecast
Issued by NWS Corpus Christi, TX

Home | Current Version | Previous Version | Text Only | Print | Product List | Glossary On
Versions: 1 2 3 4 5 6 7 8 9 10 11 12 13 14 15
000
FTUS44 KCRP 051132
TAFVCT
TAF
KVCT 051132Z 0512/0612 13009KT P6SM SCT035 BKN100
      TEMPO 0513/0515 BKN035
     FM051500 14013G18KT P6SM BKN035
     FM051800 14018G28KT P6SM BKN050
     FM060300 13011KT P6SM BKN015 OVC060
      TEMPO 0603/0606 SCT015 BKN060
     FM060900 13007KT P6SM SCT035 BKN060=

USA.gov is the U.S. government's official web portal to all federal, state and local government web resources and services.